Time;durP1;ratioP1;P1;durP2;ratioP2;P2;SDS_P1;SDS_P2;PMS_P1;PMS_P2;Temp;Humidity;BMP_temperature;BMP_pressure;BME280_temperature;BME280_humidity;BME280_pressure;Samples;Min_cycle;Max_cycle;Signal;HPM_P1;HPM_P2
2022/09/28 00:00:09;;;;;;;4.38;1.88;;;;;;;;;;4989399;28;20043;-84
2022/09/28 00:02:34;;;;;;;3.88;2.10;;;;;;;;;;4961979;28;20121;-84
2022/09/28 00:05:01;;;;;;;4.03;2.22;;;;;;;;;;4990454;28;20460;-84
2022/09/28 00:07:27;;;;;;;5.68;2.53;;;;;;;;;;4979006;28;20092;-84
2022/09/28 00:09:52;;;;;;;5.40;2.28;;;;;;;;;;4958258;28;25292;-84
2022/09/28 00:12:18;;;;;;;4.22;2.20;;;;;;;;;;4970858;28;20084;-83
2022/09/28 00:14:44;;;;;;;3.97;2.03;;;;;;;;;;4973609;28;20030;-83
2022/09/28 00:17:11;;;;;;;3.13;1.60;;;;;;;;;;4971140;28;20041;-83
2022/09/28 00:19:38;;;;;;;4.03;2.03;;;;;;;;;;4990976;28;20456;-84
2022/09/28 00:22:07;;;;;;;3.38;1.83;;;;;;;;;;4977626;28;20033;-83
2022/09/28 00:24:32;;;;;;;3.63;1.75;;;;;;;;;;4974656;28;20041;-83
2022/09/28 00:27:01;;;;;;;3.42;1.85;;;;;;;;;;4973925;28;20045;-83
2022/09/28 00:29:31;;;;;;;4.32;1.98;;;;;;;;;;4991672;28;20041;-83
2022/09/28 00:32:01;;;;;;;4.57;2.08;;;;;;;;;;4979442;28;20497;-84
2022/09/28 00:34:27;;;;;;;3.40;1.70;;;;;;;;;;4988105;28;20037;-83
2022/09/28 00:36:53;;;;;;;3.28;1.55;;;;;;;;;;4993830;28;20476;-84
2022/09/28 00:39:18;;;;;;;3.90;1.88;;;;;;;;;;4975637;28;20054;-83
2022/09/28 00:41:44;;;;;;;3.25;1.65;;;;;;;;;;4977350;28;20034;-83
2022/09/28 00:44:25;;;;;;;3.45;1.80;;;;;;;;;;4976013;28;20524;-83
2022/09/28 00:47:00;;;;;;;3.00;1.65;;;;;;;;;;4988831;28;20046;-83
2022/09/28 00:49:40;;;;;;;3.78;1.67;;;;;;;;;;4991113;28;20029;-83
2022/09/28 00:52:07;;;;;;;3.33;1.80;;;;;;;;;;4971614;28;20070;-83
2022/09/28 00:54:33;;;;;;;3.97;1.92;;;;;;;;;;4977854;28;20492;-83
2022/09/28 00:56:59;;;;;;;3.20;1.52;;;;;;;;;;4989015;28;20038;-84
2022/09/28 00:59:25;;;;;;;3.10;1.58;;;;;;;;;;4959850;28;20109;-84
2022/09/28 01:01:51;;;;;;;3.72;1.80;;;;;;;;;;4969276;28;20121;-84
2022/09/28 01:04:16;;;;;;;4.05;1.80;;;;;;;;;;4986973;28;20045;-84
2022/09/28 01:06:42;;;;;;;4.47;1.77;;;;;;;;;;4975647;28;20041;-84
2022/09/28 01:09:09;;;;;;;3.05;1.80;;;;;;;;;;4976691;28;20078;-84
2022/09/28 01:11:37;;;;;;;3.72;1.70;;;;;;;;;;4946799;28;20031;-83
2022/09/28 01:14:03;;;;;;;3.42;1.55;;;;;;;;;;4942909;28;20030;-83
2022/09/28 01:16:41;;;;;;;3.17;1.70;;;;;;;;;;4971357;28;20027;-83
2022/09/28 01:19:21;;;;;;;3.83;1.67;;;;;;;;;;4972214;28;20038;-84
2022/09/28 01:21:53;;;;;;;3.33;1.77;;;;;;;;;;4993007;28;20030;-83
2022/09/28 01:25:06;;;;;;;3.03;1.60;;;;;;;;;;4967915;28;20034;-83
2022/09/28 01:27:52;;;;;;;3.22;1.52;;;;;;;;;;4959150;28;20043;-83
2022/09/28 01:30:19;;;;;;;2.97;1.70;;;;;;;;;;4971936;28;20077;-82
2022/09/28 01:33:06;;;;;;;3.97;1.98;;;;;;;;;;4977313;28;20050;-83
2022/09/28 01:35:44;;;;;;;3.20;1.67;;;;;;;;;;4972601;28;20038;-83
2022/09/28 01:38:20;;;;;;;3.60;1.70;;;;;;;;;;4955371;28;20307;-83
2022/09/28 01:40:46;;;;;;;3.97;2.05;;;;;;;;;;4962671;28;20062;-83
2022/09/28 01:43:22;;;;;;;3.75;1.90;;;;;;;;;;4959038;28;20054;-83
2022/09/28 01:45:59;;;;;;;4.38;2.15;;;;;;;;;;4957238;28;20786;-83
2022/09/28 01:48:29;;;;;;;4.00;2.25;;;;;;;;;;4954389;28;20051;-83
2022/09/28 01:50:57;;;;;;;3.15;1.65;;;;;;;;;;4965642;28;20588;-83
2022/09/28 01:53:31;;;;;;;3.90;2.20;;;;;;;;;;4970918;28;20034;-83
2022/09/28 01:56:03;;;;;;;3.55;2.03;;;;;;;;;;4972734;28;20049;-83
2022/09/28 01:58:39;;;;;;;3.65;1.95;;;;;;;;;;4973729;28;20602;-83
2022/09/28 02:01:13;;;;;;;4.05;2.20;;;;;;;;;;4958982;28;20034;-83
2022/09/28 02:03:48;;;;;;;4.18;2.40;;;;;;;;;;4955964;28;20505;-83
2022/09/28 02:06:30;;;;;;;5.18;2.72;;;;;;;;;;4953219;28;20039;-83
2022/09/28 02:08:59;;;;;;;4.28;2.45;;;;;;;;;;4953340;28;20542;-82
2022/09/28 02:11:25;;;;;;;5.78;2.78;;;;;;;;;;4950378;28;20049;-82
2022/09/28 02:13:58;;;;;;;5.28;2.50;;;;;;;;;;4962749;28;20030;-83
2022/09/28 02:16:44;;;;;;;4.72;2.60;;;;;;;;;;4957707;28;20501;-83
2022/09/28 02:19:21;;;;;;;5.28;2.65;;;;;;;;;;4959176;28;20445;-83
2022/09/28 02:22:04;;;;;;;4.95;2.58;;;;;;;;;;4958363;28;20052;-84
2022/09/28 02:24:40;;;;;;;5.45;2.80;;;;;;;;;;4974950;28;20035;-84
2022/09/28 02:27:18;;;;;;;4.97;2.67;;;;;;;;;;4950838;28;20065;-83
2022/09/28 02:29:43;;;;;;;5.28;3.00;;;;;;;;;;4948720;28;20082;-84
2022/09/28 02:32:09;;;;;;;4.50;2.47;;;;;;;;;;4967141;28;20515;-83
2022/09/28 02:34:34;;;;;;;6.63;3.40;;;;;;;;;;4959487;28;20856;-84
2022/09/28 02:37:00;;;;;;;5.18;2.80;;;;;;;;;;4955085;28;20034;-84
2022/09/28 02:39:26;;;;;;;5.30;3.15;;;;;;;;;;4949882;28;20038;-83
2022/09/28 02:42:24;;;;;;;5.57;2.88;;;;;;;;;;4950140;28;20042;-83
2022/09/28 02:45:01;;;;;;;4.82;2.65;;;;;;;;;;4940339;28;20095;-83
2022/09/28 02:47:39;;;;;;;5.43;2.80;;;;;;;;;;4978921;28;20085;-83
2022/09/28 02:50:23;;;;;;;;;;;;;;;;;;4966293;28;20092;-82
2022/09/28 02:53:29;;;;;;;5.53;2.78;;;;;;;;;;4970340;28;19918;-84
2022/09/28 02:56:05;;;;;;;7.20;3.33;;;;;;;;;;4952907;28;20043;-82
2022/09/28 02:58:43;;;;;;;5.13;2.85;;;;;;;;;;4948525;28;20114;-83
2022/09/28 03:01:20;;;;;;;6.13;3.03;;;;;;;;;;4963250;28;20549;-83
2022/09/28 03:04:06;;;;;;;5.95;3.33;;;;;;;;;;4981797;28;20163;-83
2022/09/28 03:06:38;;;;;;;5.70;3.13;;;;;;;;;;4953424;28;20497;-82
2022/09/28 03:09:09;;;;;;;6.00;3.30;;;;;;;;;;4952462;28;20045;-83
2022/09/28 03:11:42;;;;;;;5.68;3.30;;;;;;;;;;4985938;28;20037;-83
2022/09/28 03:14:09;;;;;;;5.72;3.28;;;;;;;;;;4991963;28;20168;-84
2022/09/28 03:16:34;;;;;;;5.65;3.35;;;;;;;;;;4972633;28;20056;-84
2022/09/28 03:18:59;;;;;;;6.32;3.30;;;;;;;;;;4993736;28;20041;-84
2022/09/28 03:21:25;;;;;;;6.28;3.20;;;;;;;;;;4975602;28;20034;-84
2022/09/28 03:23:50;;;;;;;5.47;2.95;;;;;;;;;;4989751;28;20037;-84
2022/09/28 03:26:15;;;;;;;6.30;3.22;;;;;;;;;;4975207;28;20038;-83
2022/09/28 03:28:41;;;;;;;5.90;3.08;;;;;;;;;;4976002;28;20038;-84
2022/09/28 03:31:07;;;;;;;5.13;2.90;;;;;;;;;;4990927;28;20104;-83
2022/09/28 03:33:32;;;;;;;5.68;3.13;;;;;;;;;;4981030;28;20096;-84
2022/09/28 03:35:57;;;;;;;7.60;3.08;;;;;;;;;;4989958;28;20396;-87
2022/09/28 03:38:23;;;;;;;5.97;3.35;;;;;;;;;;4971214;28;20038;-87
2022/09/28 03:40:56;;;;;;;6.13;3.17;;;;;;;;;;4976779;28;20037;-86
2022/09/28 03:43:22;;;;;;;6.55;3.13;;;;;;;;;;4980407;28;20051;-87
2022/09/28 03:45:55;;;;;;;6.82;3.20;;;;;;;;;;4974681;28;20038;-87
2022/09/28 03:48:23;;;;;;;6.05;3.17;;;;;;;;;;4992467;28;20042;-86
2022/09/28 03:50:51;;;;;;;;;;;;;;;;;;4977396;28;20057;-86
2022/09/28 03:53:16;;;;;;;7.72;3.42;;;;;;;;;;4993945;28;20292;-86
2022/09/28 03:55:41;;;;;;;7.40;3.38;;;;;;;;;;4977116;28;20034;-86
2022/09/28 03:58:06;;;;;;;5.78;3.13;;;;;;;;;;4978713;28;20041;-87
2022/09/28 04:00:32;;;;;;;5.75;3.10;;;;;;;;;;4977654;28;20174;-86
2022/09/28 04:02:57;;;;;;;6.50;3.53;;;;;;;;;;4990447;28;20868;-87
2022/09/28 04:05:22;;;;;;;6.78;3.40;;;;;;;;;;4987488;28;20045;-87
2022/09/28 04:07:48;;;;;;;6.25;3.47;;;;;;;;;;4988952;28;20053;-86
2022/09/28 04:10:13;;;;;;;5.95;3.28;;;;;;;;;;4979949;28;20112;-87
2022/09/28 04:12:39;;;;;;;5.63;3.13;;;;;;;;;;4976400;28;20052;-86
2022/09/28 04:15:05;;;;;;;8.52;3.85;;;;;;;;;;4974463;28;20076;-87
2022/09/28 04:17:33;;;;;;;6.28;3.42;;;;;;;;;;4992376;28;20030;-86
2022/09/28 04:19:58;;;;;;;7.50;3.50;;;;;;;;;;4977363;28;20064;-88
2022/09/28 04:22:23;;;;;;;6.28;3.38;;;;;;;;;;4975839;28;20030;-86
2022/09/28 04:24:49;;;;;;;5.85;3.15;;;;;;;;;;4976048;28;20806;-85
2022/09/28 04:29:58;;;;;;;8.35;3.53;;;;;;;;;;4993452;28;20393;-88
2022/09/28 04:32:23;;;;;;;7.63;3.53;;;;;;;;;;4976330;28;20046;-90
2022/09/28 04:34:50;;;;;;;6.72;3.72;;;;;;;;;;4984405;28;20045;-89
2022/09/28 04:37:16;;;;;;;7.57;3.75;;;;;;;;;;4972495;28;20042;-90
2022/09/28 04:39:42;;;;;;;6.25;3.50;;;;;;;;;;4993565;28;20375;-89
2022/09/28 04:42:09;;;;;;;7.50;3.78;;;;;;;;;;4993275;28;20504;-90
2022/09/28 04:44:34;;;;;;;7.15;4.05;;;;;;;;;;4992485;28;20478;-90
2022/09/28 04:47:00;;;;;;;6.10;3.17;;;;;;;;;;4975662;28;20049;-90
2022/09/28 04:49:25;;;;;;;6.40;3.70;;;;;;;;;;4966684;28;20046;-92
2022/09/28 04:51:51;;;;;;;5.72;3.30;;;;;;;;;;4974997;28;20039;-84
2022/09/28 04:54:16;;;;;;;6.90;3.83;;;;;;;;;;4994621;28;20069;-81
2022/09/28 04:56:42;;;;;;;6.07;3.67;;;;;;;;;;5014345;28;20085;-84
2022/09/28 04:59:08;;;;;;;5.93;3.45;;;;;;;;;;4993271;28;20121;-84
2022/09/28 05:01:34;;;;;;;6.40;3.65;;;;;;;;;;4992865;28;20092;-83
2022/09/28 05:03:59;;;;;;;6.40;3.72;;;;;;;;;;4996723;28;20041;-83
2022/09/28 05:06:27;;;;;;;7.38;3.58;;;;;;;;;;4992388;28;20037;-83
2022/09/28 05:08:56;;;;;;;;;;;;;;;;;;4996763;28;20500;-84
2022/09/28 05:11:22;;;;;;;7.95;4.60;;;;;;;;;;4983656;28;20424;-84
2022/09/28 05:13:49;;;;;;;9.55;4.80;;;;;;;;;;4993786;28;20133;-84
2022/09/28 05:16:19;;;;;;;6.53;4.00;;;;;;;;;;4980646;28;20112;-85
2022/09/28 05:18:44;;;;;;;6.82;3.67;;;;;;;;;;5006845;28;20038;-84
2022/09/28 05:21:12;;;;;;;8.32;4.00;;;;;;;;;;4971326;28;20116;-85
2022/09/28 05:23:38;;;;;;;6.97;4.00;;;;;;;;;;4978314;28;20104;-85
2022/09/28 05:26:05;;;;;;;8.75;3.85;;;;;;;;;;4964243;28;20038;-85
2022/09/28 05:28:32;;;;;;;7.63;4.27;;;;;;;;;;4977729;28;20042;-85
2022/09/28 05:31:31;;;;;;;8.10;4.15;;;;;;;;;;4958353;28;20040;-86
2022/09/28 05:33:59;;;;;;;8.77;4.07;;;;;;;;;;4997047;28;20477;-85
2022/09/28 05:36:26;;;;;;;7.85;3.58;;;;;;;;;;4954539;28;20491;-86
2022/09/28 05:38:51;;;;;;;7.10;4.10;;;;;;;;;;4958360;28;20482;-86
2022/09/28 05:41:17;;;;;;;7.90;3.90;;;;;;;;;;4986337;28;20060;-85
2022/09/28 05:43:44;;;;;;;8.13;4.28;;;;;;;;;;4975355;28;20046;-86
2022/09/28 05:46:10;;;;;;;8.48;4.50;;;;;;;;;;4971449;28;20034;-86
2022/09/28 05:48:35;;;;;;;7.53;4.40;;;;;;;;;;4974455;28;20030;-87
2022/09/28 05:51:01;;;;;;;6.15;3.92;;;;;;;;;;4971159;28;20121;-87
2022/09/28 05:53:27;;;;;;;7.50;3.83;;;;;;;;;;4974484;28;20038;-87
2022/09/28 05:55:58;;;;;;;7.35;4.22;;;;;;;;;;4974608;28;20099;-88
2022/09/28 05:58:24;;;;;;;6.63;3.83;;;;;;;;;;4980840;28;20127;-87
2022/09/28 06:00:54;;;;;;;7.35;3.90;;;;;;;;;;4978942;28;20145;-88
2022/09/28 06:03:21;;;;;;;8.18;3.97;;;;;;;;;;4973403;28;20393;-87
2022/09/28 06:05:47;;;;;;;8.87;4.20;;;;;;;;;;4974528;28;20033;-88
2022/09/28 06:08:15;;;;;;;6.18;3.38;;;;;;;;;;4974432;28;20307;-88
2022/09/28 06:10:41;;;;;;;6.85;3.63;;;;;;;;;;4991287;28;20042;-88
2022/09/28 06:13:07;;;;;;;6.80;3.80;;;;;;;;;;4981665;28;20397;-87
2022/09/28 06:15:34;;;;;;;5.68;3.22;;;;;;;;;;4983188;28;20041;-87
2022/09/28 06:18:01;;;;;;;8.82;3.65;;;;;;;;;;4995653;28;20041;-88
2022/09/28 06:20:28;;;;;;;7.00;3.88;;;;;;;;;;4976207;28;20038;-88
2022/09/28 06:22:55;;;;;;;7.67;3.80;;;;;;;;;;4976712;28;20405;-88
2022/09/28 06:25:21;;;;;;;6.93;3.83;;;;;;;;;;4991885;28;20329;-88
2022/09/28 06:27:58;;;;;;;6.83;4.13;;;;;;;;;;4984033;28;20096;-87
2022/09/28 06:30:25;;;;;;;5.43;3.23;;;;;;;;;;4993645;28;20093;-88
2022/09/28 06:32:55;;;;;;;7.07;3.97;;;;;;;;;;4980673;28;20782;-87
2022/09/28 06:35:24;;;;;;;7.35;4.20;;;;;;;;;;4998881;28;20068;-86
2022/09/28 06:37:50;;;;;;;7.50;4.22;;;;;;;;;;4995301;28;20044;-87
2022/09/28 06:40:16;;;;;;;6.65;3.83;;;;;;;;;;4978287;28;20116;-87
2022/09/28 06:42:42;;;;;;;6.60;4.10;;;;;;;;;;4979693;28;20037;-88
2022/09/28 06:45:09;;;;;;;7.93;3.95;;;;;;;;;;4979977;28;20087;-88
2022/09/28 06:47:34;;;;;;;7.95;4.03;;;;;;;;;;4979811;28;20038;-87
2022/09/28 06:50:00;;;;;;;7.13;3.90;;;;;;;;;;4993560;28;20485;-88
2022/09/28 06:52:25;;;;;;;8.30;4.22;;;;;;;;;;4979382;28;20418;-88
2022/09/28 06:54:51;;;;;;;22.40;11.98;;;;;;;;;;4982071;28;20048;-89
2022/09/28 06:57:19;;;;;;;9.88;5.13;;;;;;;;;;4986913;28;20114;-89
2022/09/28 06:59:48;;;;;;;7.13;4.13;;;;;;;;;;4998157;28;20041;-89
2022/09/28 07:02:14;;;;;;;7.13;4.30;;;;;;;;;;4981255;28;20045;-87
2022/09/28 07:04:44;;;;;;;6.22;3.42;;;;;;;;;;4976946;28;20679;-88
2022/09/28 07:07:10;;;;;;;9.02;4.10;;;;;;;;;;4976520;28;20038;-89
2022/09/28 07:09:36;;;;;;;6.03;3.60;;;;;;;;;;4977051;28;20060;-88
2022/09/28 07:12:08;;;;;;;10.15;4.28;;;;;;;;;;4968148;28;20493;-88
2022/09/28 07:14:38;;;;;;;7.13;3.70;;;;;;;;;;4981408;28;20398;-88
2022/09/28 07:17:07;;;;;;;7.30;3.70;;;;;;;;;;4985644;28;20224;-88
2022/09/28 07:19:33;;;;;;;8.38;3.92;;;;;;;;;;4996830;28;20547;-89
2022/09/28 07:21:59;;;;;;;6.70;3.30;;;;;;;;;;4978456;28;20849;-89
2022/09/28 07:24:24;;;;;;;6.88;3.47;;;;;;;;;;4981924;28;20042;-88
2022/09/28 07:26:50;;;;;;;6.40;3.80;;;;;;;;;;4993529;28;20045;-89
2022/09/28 07:29:16;;;;;;;7.35;3.92;;;;;;;;;;4955836;28;20140;-88
2022/09/28 07:31:43;;;;;;;6.75;3.55;;;;;;;;;;4959727;28;20041;-89
2022/09/28 07:34:08;;;;;;;6.40;3.60;;;;;;;;;;4978003;28;20145;-89
2022/09/28 07:36:34;;;;;;;5.80;3.50;;;;;;;;;;4964173;28;20180;-90
2022/09/28 07:39:02;;;;;;;5.75;3.40;;;;;;;;;;4979027;28;20037;-89
2022/09/28 07:41:31;;;;;;;7.15;3.40;;;;;;;;;;4971168;28;20042;-90
2022/09/28 07:44:04;;;;;;;6.88;3.58;;;;;;;;;;4980173;28;20101;-89
2022/09/28 07:46:32;;;;;;;5.38;3.33;;;;;;;;;;4979093;28;20577;-88
2022/09/28 07:48:57;;;;;;;5.97;3.58;;;;;;;;;;4984113;28;20034;-89
2022/09/28 07:51:27;;;;;;;5.43;3.55;;;;;;;;;;4983128;28;20026;-88
2022/09/28 07:53:53;;;;;;;6.68;3.63;;;;;;;;;;4997437;28;20045;-88
2022/09/28 07:56:19;;;;;;;6.38;4.00;;;;;;;;;;4993984;28;20382;-88
2022/09/28 07:58:46;;;;;;;6.40;3.72;;;;;;;;;;4979643;28;20034;-88
2022/09/28 08:01:15;;;;;;;6.43;3.85;;;;;;;;;;4978772;28;20034;-89
2022/09/28 08:03:46;;;;;;;6.65;3.90;;;;;;;;;;4980480;28;20030;-88
2022/09/28 08:06:13;;;;;;;6.53;3.97;;;;;;;;;;4978948;28;20029;-91
2022/09/28 08:08:42;;;;;;;7.03;3.67;;;;;;;;;;4981007;28;20077;-89
2022/09/28 08:11:09;;;;;;;6.05;3.55;;;;;;;;;;4976847;28;20172;-90
2022/09/28 08:13:36;;;;;;;7.57;3.72;;;;;;;;;;4984527;28;20033;-88
2022/09/28 08:16:07;;;;;;;6.00;3.70;;;;;;;;;;4982144;28;20157;-88
2022/09/28 08:18:34;;;;;;;6.28;3.38;;;;;;;;;;4980511;28;20054;-89
2022/09/28 08:23:49;;;;;;;6.35;3.40;;;;;;;;;;4996824;28;20457;-89
2022/09/28 08:26:16;;;;;;;5.50;3.35;;;;;;;;;;4976797;28;20042;-89
2022/09/28 08:28:43;;;;;;;6.00;3.47;;;;;;;;;;4977215;28;20097;-88
2022/09/28 08:31:09;;;;;;;6.65;4.00;;;;;;;;;;4964378;28;20496;-89
2022/09/28 08:33:34;;;;;;;7.30;3.67;;;;;;;;;;4978549;28;20040;-89
2022/09/28 08:36:04;;;;;;;6.32;3.58;;;;;;;;;;4952261;28;20055;-88
2022/09/28 08:38:41;;;;;;;5.40;3.60;;;;;;;;;;4952119;28;20034;-87
2022/09/28 08:41:27;;;;;;;6.15;3.88;;;;;;;;;;4972012;28;20516;-89
2022/09/28 08:44:00;;;;;;;6.32;3.75;;;;;;;;;;4991543;28;20044;-89
2022/09/28 08:46:32;;;;;;;6.18;3.03;;;;;;;;;;4984280;28;20042;-89
2022/09/28 08:49:03;;;;;;;5.00;2.88;;;;;;;;;;4970980;28;20065;-89
2022/09/28 08:51:43;;;;;;;5.20;2.75;;;;;;;;;;4979308;28;20038;-89
2022/09/28 08:54:40;;;;;;;6.10;2.83;;;;;;;;;;4970420;28;20045;-90
2022/09/28 08:57:13;;;;;;;4.43;2.05;;;;;;;;;;4992334;28;20037;-89
2022/09/28 08:59:46;;;;;;;2.95;1.50;;;;;;;;;;4974690;28;20049;-89
2022/09/28 09:02:25;;;;;;;4.75;1.67;;;;;;;;;;4975093;28;20030;-90
2022/09/28 09:04:51;;;;;;;3.13;1.33;;;;;;;;;;4972122;28;20502;-91
2022/09/28 09:07:46;;;;;;;3.03;1.55;;;;;;;;;;4973971;28;20033;-90
2022/09/28 09:10:49;;;;;;;3.05;1.23;;;;;;;;;;4991502;28;20041;-90
2022/09/28 09:14:08;;;;;;;2.65;1.17;;;;;;;;;;5010880;28;20026;-89
2022/09/28 09:16:46;;;;;;;2.92;0.93;;;;;;;;;;4931840;29;20043;-92
2022/09/28 09:19:11;;;;;;;;;;;;;;;;;;4985960;28;20429;-91
2022/09/28 09:21:43;;;;;;;2.10;1.00;;;;;;;;;;4992257;28;19917;-91
2022/09/28 09:24:14;;;;;;;2.50;1.00;;;;;;;;;;4974633;28;20026;-90
2022/09/28 09:26:40;;;;;;;3.47;1.10;;;;;;;;;;4995479;28;20052;-93
2022/09/28 09:29:25;;;;;;;2.72;1.20;;;;;;;;;;4973341;28;20497;-90
2022/09/28 09:31:58;;;;;;;3.42;0.90;;;;;;;;;;4967846;28;20397;-90
2022/09/28 09:34:33;;;;;;;3.72;1.42;;;;;;;;;;4972305;28;20551;-91
2022/09/28 09:37:40;;;;;;;1.80;0.88;;;;;;;;;;4975062;28;20109;-90
2022/09/28 09:40:14;;;;;;;;;;;;;;;;;;4992179;28;20516;-92
2022/09/28 09:42:48;;;;;;;1.45;0.70;;;;;;;;;;5008410;28;20440;-90
2022/09/28 09:45:42;;;;;;;2.08;0.80;;;;;;;;;;4981169;28;20034;-90
2022/09/28 09:48:19;;;;;;;4.00;0.93;;;;;;;;;;4979730;28;20112;-90
2022/09/28 09:50:52;;;;;;;1.67;0.80;;;;;;;;;;4977331;28;20398;-92
2022/09/28 09:53:58;;;;;;;2.13;1.02;;;;;;;;;;4973230;28;20046;-90
2022/09/28 09:56:35;;;;;;;3.10;1.10;;;;;;;;;;4935791;28;20144;-88
2022/09/28 09:59:14;;;;;;;1.58;0.70;;;;;;;;;;4985363;28;20375;-91
2022/09/28 10:01:40;;;;;;;2.60;0.80;;;;;;;;;;4973197;28;20034;-91
2022/09/28 10:04:31;;;;;;;1.60;0.60;;;;;;;;;;4975094;28;20887;-91
2022/09/28 10:07:02;;;;;;;1.52;0.63;;;;;;;;;;4973178;28;20038;-91
2022/09/28 10:09:47;;;;;;;1.15;0.50;;;;;;;;;;4973354;28;20034;-90
2022/09/28 10:12:18;;;;;;;2.20;0.85;;;;;;;;;;4973580;28;20061;-90
2022/09/28 10:14:44;;;;;;;1.38;0.70;;;;;;;;;;4975055;28;20030;-90
2022/09/28 10:17:12;;;;;;;1.67;0.60;;;;;;;;;;4979615;28;20077;-91
2022/09/28 10:19:41;;;;;;;1.88;0.60;;;;;;;;;;4974501;28;20085;-90
2022/09/28 10:22:09;;;;;;;2.15;0.70;;;;;;;;;;4979611;28;20509;-92
2022/09/28 10:24:40;;;;;;;1.70;0.60;;;;;;;;;;4978862;28;20037;-90
2022/09/28 10:27:17;;;;;;;1.40;0.70;;;;;;;;;;4972775;28;20124;-89
2022/09/28 10:29:49;;;;;;;1.55;0.70;;;;;;;;;;4974094;28;20510;-86
2022/09/28 10:32:26;;;;;;;2.08;0.90;;;;;;;;;;4971066;28;20038;-87
2022/09/28 10:35:13;;;;;;;2.40;1.10;;;;;;;;;;4991581;28;20030;-91
2022/09/28 10:38:25;;;;;;;2.72;1.27;;;;;;;;;;4951237;28;20037;-87
2022/09/28 10:40:54;;;;;;;1.90;0.90;;;;;;;;;;4953768;28;20042;-86
2022/09/28 10:43:25;;;;;;;3.53;1.33;;;;;;;;;;4958432;28;20049;-86
2022/09/28 10:46:09;;;;;;;2.38;1.05;;;;;;;;;;4981058;28;20046;-86
2022/09/28 10:48:57;;;;;;;3.38;1.40;;;;;;;;;;4958001;28;20570;-86
2022/09/28 10:51:41;;;;;;;;;;;;;;;;;;4956621;28;20037;-86
2022/09/28 10:54:24;;;;;;;2.45;1.30;;;;;;;;;;4985143;28;19917;-86
2022/09/28 10:56:52;;;;;;;2.70;1.30;;;;;;;;;;4971787;28;20030;-86
2022/09/28 10:59:29;;;;;;;3.13;1.48;;;;;;;;;;4950539;28;20096;-85
2022/09/28 11:02:14;;;;;;;2.75;1.35;;;;;;;;;;4977057;28;20126;-85
2022/09/28 11:05:04;;;;;;;4.10;1.70;;;;;;;;;;4964223;28;20148;-87
2022/09/28 11:07:38;;;;;;;2.78;1.33;;;;;;;;;;4954351;28;20043;-85
2022/09/28 11:10:27;;;;;;;4.40;1.80;;;;;;;;;;4947962;28;20137;-87
2022/09/28 11:12:53;;;;;;;4.18;1.80;;;;;;;;;;4959936;28;20039;-87
2022/09/28 11:15:21;;;;;;;3.00;1.35;;;;;;;;;;4977050;28;20121;-85
2022/09/28 11:17:52;;;;;;;;;;;;;;;;;;4950678;28;20137;-85
2022/09/28 11:20:24;;;;;;;4.18;1.85;;;;;;;;;;4970789;28;20052;-86
2022/09/28 11:22:58;;;;;;;3.05;1.45;;;;;;;;;;4951558;28;20539;-85
2022/09/28 11:25:27;;;;;;;3.10;1.58;;;;;;;;;;4988344;28;20042;-85
2022/09/28 11:27:52;;;;;;;4.50;1.60;;;;;;;;;;4956531;28;20053;-86
2022/09/28 11:30:20;;;;;;;3.60;1.60;;;;;;;;;;4976667;28;20398;-86
2022/09/28 11:32:46;;;;;;;3.67;1.60;;;;;;;;;;4992744;28;20137;-86
2022/09/28 11:35:22;;;;;;;3.20;1.70;;;;;;;;;;4965141;28;20125;-86
2022/09/28 11:38:39;;;;;;;2.28;1.17;;;;;;;;;;4964156;28;20042;-86
2022/09/28 11:41:13;;;;;;;2.47;1.00;;;;;;;;;;4878623;29;20495;-86
2022/09/28 11:43:50;;;;;;;3.95;1.65;;;;;;;;;;4913535;29;20127;-86
2022/09/28 11:46:28;;;;;;;4.03;1.40;;;;;;;;;;4892455;29;20744;-86
2022/09/28 11:48:59;;;;;;;2.50;1.35;;;;;;;;;;4900713;29;20368;-86
2022/09/28 11:51:34;;;;;;;2.60;1.20;;;;;;;;;;4912301;29;20525;-86
2022/09/28 11:54:03;;;;;;;2.63;1.10;;;;;;;;;;4914524;29;20043;-86
2022/09/28 11:56:35;;;;;;;2.17;1.05;;;;;;;;;;4913779;29;20032;-87
2022/09/28 11:59:12;;;;;;;1.95;1.00;;;;;;;;;;4896625;29;20500;-86
2022/09/28 12:01:51;;;;;;;1.92;0.80;;;;;;;;;;4913700;28;20044;-86
2022/09/28 12:04:32;;;;;;;1.95;0.85;;;;;;;;;;4896089;29;20040;-86
2022/09/28 12:07:03;;;;;;;2.53;0.80;;;;;;;;;;4915648;29;20135;-87
2022/09/28 12:09:42;;;;;;;1.45;0.70;;;;;;;;;;4898630;29;20095;-88
2022/09/28 12:12:37;;;;;;;1.95;0.77;;;;;;;;;;4875792;29;20139;-88
2022/09/28 12:15:21;;;;;;;1.42;0.60;;;;;;;;;;4910589;29;20404;-88
2022/09/28 12:17:56;;;;;;;1.50;0.68;;;;;;;;;;4929099;28;20031;-88
2022/09/28 12:20:24;;;;;;;0.98;0.50;;;;;;;;;;4964773;28;20041;-88
2022/09/28 12:23:12;;;;;;;2.63;0.75;;;;;;;;;;4961196;28;20033;-88
2022/09/28 12:25:47;;;;;;;1.40;0.60;;;;;;;;;;4976652;28;20069;-88
2022/09/28 12:28:24;;;;;;;1.58;0.70;;;;;;;;;;4976924;28;20038;-89
2022/09/28 12:30:50;;;;;;;1.25;0.60;;;;;;;;;;4993790;28;20043;-88
2022/09/28 12:33:15;;;;;;;1.58;0.73;;;;;;;;;;4962736;28;20038;-89
2022/09/28 12:36:00;;;;;;;1.02;0.60;;;;;;;;;;4970851;28;20053;-90
2022/09/28 12:38:34;;;;;;;1.55;0.50;;;;;;;;;;4943432;28;20039;-88
2022/09/28 12:41:18;;;;;;;1.20;0.50;;;;;;;;;;4990595;28;20031;-90
2022/09/28 12:44:25;;;;;;;1.25;0.60;;;;;;;;;;4980490;28;20049;-89
2022/09/28 12:46:53;;;;;;;1.63;0.63;;;;;;;;;;4880729;29;20043;-88
2022/09/28 12:49:43;;;;;;;1.15;0.60;;;;;;;;;;4871093;29;20538;-88
2022/09/28 12:52:28;;;;;;;1.00;0.50;;;;;;;;;;4882447;29;20036;-89
2022/09/28 12:55:18;;;;;;;1.20;0.60;;;;;;;;;;4886444;29;20043;-89
2022/09/28 12:58:06;;;;;;;1.25;0.55;;;;;;;;;;4868068;29;20037;-88
2022/09/28 13:00:46;;;;;;;1.73;0.75;;;;;;;;;;4860869;29;20563;-88
2022/09/28 13:03:30;;;;;;;1.35;0.60;;;;;;;;;;4881373;29;20123;-88
2022/09/28 13:06:11;;;;;;;1.33;0.60;;;;;;;;;;4863584;29;20504;-88
2022/09/28 13:08:55;;;;;;;1.45;0.70;;;;;;;;;;4864277;29;20404;-87
2022/09/28 13:11:59;;;;;;;1.52;0.65;;;;;;;;;;4871627;29;20044;-87
2022/09/28 13:14:32;;;;;;;2.05;0.60;;;;;;;;;;4877821;29;20060;-88
2022/09/28 13:17:20;;;;;;;0.70;0.50;;;;;;;;;;4850398;29;20041;-88
2022/09/28 13:19:58;;;;;;;1.25;0.55;;;;;;;;;;4876991;29;20056;-88
2022/09/28 13:22:45;;;;;;;0.98;0.50;;;;;;;;;;4881012;28;20046;-88
2022/09/28 13:25:15;;;;;;;2.10;0.80;;;;;;;;;;4971359;28;20045;-89
2022/09/28 13:27:49;;;;;;;1.50;0.60;;;;;;;;;;4968415;28;20069;-89
2022/09/28 13:30:18;;;;;;;0.93;0.63;;;;;;;;;;4970218;28;20453;-88
2022/09/28 13:32:45;;;;;;;2.17;0.70;;;;;;;;;;4968434;28;20042;-88
2022/09/28 13:35:19;;;;;;;0.93;0.57;;;;;;;;;;4961644;28;20038;-87
2022/09/28 13:37:45;;;;;;;1.92;0.68;;;;;;;;;;4958100;28;20042;-89
2022/09/28 13:40:13;;;;;;;2.53;0.60;;;;;;;;;;4933904;28;20522;-90
2022/09/28 13:42:44;;;;;;;1.15;0.50;;;;;;;;;;4953425;28;20575;-88
2022/09/28 13:45:16;;;;;;;1.30;0.50;;;;;;;;;;4986893;28;20038;-88
2022/09/28 13:47:56;;;;;;;1.40;0.60;;;;;;;;;;4972742;28;20053;-88
2022/09/28 13:50:40;;;;;;;1.83;0.60;;;;;;;;;;4959542;28;20066;-86
2022/09/28 13:53:36;;;;;;;1.15;0.47;;;;;;;;;;4987816;28;20050;-86
2022/09/28 13:56:29;;;;;;;1.57;0.50;;;;;;;;;;4962814;28;20113;-87
2022/09/28 13:59:33;;;;;;;0.90;0.47;;;;;;;;;;4939473;28;20637;-86
2022/09/28 14:02:03;;;;;;;2.22;0.70;;;;;;;;;;4924312;28;20030;-87
2022/09/28 14:04:58;;;;;;;1.33;0.50;;;;;;;;;;4964252;28;20034;-87
2022/09/28 14:07:32;;;;;;;2.72;0.60;;;;;;;;;;4937677;28;20449;-86
2022/09/28 14:10:16;;;;;;;1.17;0.60;;;;;;;;;;4966539;28;20856;-87
2022/09/28 14:12:46;;;;;;;2.35;0.70;;;;;;;;;;4996388;28;20047;-87
2022/09/28 14:15:30;;;;;;;1.67;0.50;;;;;;;;;;4995928;28;20540;-87
2022/09/28 14:18:47;;;;;;;1.48;0.60;;;;;;;;;;5001889;28;20045;-86
2022/09/28 14:21:48;;;;;;;1.88;0.70;;;;;;;;;;4961123;28;20045;-87
2022/09/28 14:24:47;;;;;;;1.38;0.52;;;;;;;;;;5002432;28;20078;-87
2022/09/28 14:27:39;;;;;;;1.52;0.60;;;;;;;;;;4960710;28;20125;-87
2022/09/28 14:30:22;;;;;;;0.70;0.40;;;;;;;;;;5001226;28;20540;-86
2022/09/28 14:33:01;;;;;;;1.20;0.60;;;;;;;;;;4997056;28;20064;-86
2022/09/28 14:36:03;;;;;;;1.65;0.60;;;;;;;;;;4939870;28;20039;-85
2022/09/28 14:41:40;;;;;;;0.90;0.43;;;;;;;;;;4978746;28;20053;-86
2022/09/28 14:44:13;;;;;;;1.45;0.50;;;;;;;;;;4970089;28;20488;-85
2022/09/28 14:46:44;;;;;;;1.60;0.50;;;;;;;;;;4966221;28;20050;-85
2022/09/28 14:49:25;;;;;;;1.45;0.60;;;;;;;;;;4974109;28;20508;-86
2022/09/28 14:51:54;;;;;;;1.00;0.40;;;;;;;;;;4958045;28;20062;-86
2022/09/28 14:54:21;;;;;;;1.00;0.45;;;;;;;;;;4983145;28;20049;-88
2022/09/28 14:56:55;;;;;;;2.70;0.40;;;;;;;;;;5004287;28;20516;-87
2022/09/28 14:59:29;;;;;;;1.42;0.50;;;;;;;;;;4981509;28;20034;-87
2022/09/28 15:02:05;;;;;;;0.77;0.40;;;;;;;;;;4996256;28;21561;-89
2022/09/28 15:04:34;;;;;;;0.90;0.50;;;;;;;;;;4980808;28;20029;-87
2022/09/28 15:06:59;;;;;;;0.98;0.40;;;;;;;;;;4972762;28;20497;-87
2022/09/28 15:09:32;;;;;;;1.27;0.60;;;;;;;;;;4974470;28;20049;-88
2022/09/28 15:12:02;;;;;;;1.15;0.50;;;;;;;;;;4968122;28;20036;-88
2022/09/28 15:14:32;;;;;;;1.60;0.60;;;;;;;;;;4974010;28;20540;-87
2022/09/28 15:17:02;;;;;;;1.20;0.60;;;;;;;;;;4973022;28;20065;-88
2022/09/28 15:19:50;;;;;;;1.50;0.60;;;;;;;;;;4969949;28;20026;-88
2022/09/28 15:22:16;;;;;;;1.85;0.70;;;;;;;;;;4968154;28;20381;-87
2022/09/28 15:24:45;;;;;;;1.23;0.60;;;;;;;;;;4981846;28;20042;-88
2022/09/28 15:27:14;;;;;;;1.48;0.60;;;;;;;;;;4971387;28;20030;-87
2022/09/28 15:29:40;;;;;;;1.27;0.63;;;;;;;;;;4989629;28;20523;-85